BIS weather

Bismarck Municipal Airport
Bismarck, North Dakota, United States

Public forecast

Using degrees Fahrenheit for public forecast. Weather courtesy of forecast.io.

METAR (pilot weather report)

Retrieved 2019/04/18 18:30 UTC (0 seconds ago):

KBIS 181830Z 36005KT 10SM BKN014 OVC023 08/05 A3006 RMK AO2 T00830050

TAF (pilot weather forecast)

Retrieved 2019/04/18 18:24 UTC (0 seconds ago):

TAF KBIS 181721Z 1818/1918 33011KT P6SM BKN013 FM181900 33010KT P6SM SCT019 FM182300 34011G19KT P6SM SCT120 FM190400 00000KT P6SM SKC FM191700 20011KT P6SM FEW200